sensor_id;sensor_type;location;lat;lon;timestamp;temperature;humidity
11454;DHT22;5783;55.174;61.310;2023-07-24T00:00:01;25.80;45.80
11454;DHT22;5783;55.174;61.310;2023-07-24T00:02:32;25.80;45.80
11454;DHT22;5783;55.174;61.310;2023-07-24T00:05:01;25.80;45.80
11454;DHT22;5783;55.174;61.310;2023-07-24T00:07:31;25.80;45.70
11454;DHT22;5783;55.174;61.310;2023-07-24T00:10:00;25.70;45.70
11454;DHT22;5783;55.174;61.310;2023-07-24T00:12:31;25.70;45.60
11454;DHT22;5783;55.174;61.310;2023-07-24T00:15:00;25.70;45.50
11454;DHT22;5783;55.174;61.310;2023-07-24T00:17:31;25.70;45.50
11454;DHT22;5783;55.174;61.310;2023-07-24T00:20:00;25.70;45.50
11454;DHT22;5783;55.174;61.310;2023-07-24T00:22:31;25.70;45.40
11454;DHT22;5783;55.174;61.310;2023-07-24T00:25:00;25.70;45.40
11454;DHT22;5783;55.174;61.310;2023-07-24T00:27:32;25.70;45.50
11454;DHT22;5783;55.174;61.310;2023-07-24T00:30:01;25.70;45.60
11454;DHT22;5783;55.174;61.310;2023-07-24T00:32:32;25.70;45.60
11454;DHT22;5783;55.174;61.310;2023-07-24T00:35:02;25.70;45.60
11454;DHT22;5783;55.174;61.310;2023-07-24T00:37:32;25.70;45.70
11454;DHT22;5783;55.174;61.310;2023-07-24T00:40:02;25.70;45.70
11454;DHT22;5783;55.174;61.310;2023-07-24T00:42:33;25.70;45.70
11454;DHT22;5783;55.174;61.310;2023-07-24T00:45:02;25.70;45.80
11454;DHT22;5783;55.174;61.310;2023-07-24T00:47:33;25.60;45.70
11454;DHT22;5783;55.174;61.310;2023-07-24T00:50:02;25.60;45.70
11454;DHT22;5783;55.174;61.310;2023-07-24T00:52:31;25.60;45.80
11454;DHT22;5783;55.174;61.310;2023-07-24T00:55:01;25.60;45.80
11454;DHT22;5783;55.174;61.310;2023-07-24T00:57:32;25.60;45.80
11454;DHT22;5783;55.174;61.310;2023-07-24T01:00:02;25.60;45.90
11454;DHT22;5783;55.174;61.310;2023-07-24T01:02:33;25.60;45.80
11454;DHT22;5783;55.174;61.310;2023-07-24T01:05:02;25.60;45.80
11454;DHT22;5783;55.174;61.310;2023-07-24T01:07:33;25.60;45.90
11454;DHT22;5783;55.174;61.310;2023-07-24T01:10:02;25.60;45.40
11454;DHT22;5783;55.174;61.310;2023-07-24T01:16:19;25.60;46.00
11454;DHT22;5783;55.174;61.310;2023-07-24T01:18:15;25.50;46.00
11454;DHT22;5783;55.174;61.310;2023-07-24T01:21:06;25.50;46.10
11454;DHT22;5783;55.174;61.310;2023-07-24T01:24:33;25.50;46.10
11454;DHT22;5783;55.174;61.310;2023-07-24T01:26:26;25.50;46.20
11454;DHT22;5783;55.174;61.310;2023-07-24T01:28:55;25.50;46.20
11454;DHT22;5783;55.174;61.310;2023-07-24T01:31:24;25.50;45.70
11454;DHT22;5783;55.174;61.310;2023-07-24T01:33:54;25.50;46.30
11454;DHT22;5783;55.174;61.310;2023-07-24T01:36:23;25.50;46.20
11454;DHT22;5783;55.174;61.310;2023-07-24T01:38:53;25.50;46.30
11454;DHT22;5783;55.174;61.310;2023-07-24T01:41:23;25.50;46.30
11454;DHT22;5783;55.174;61.310;2023-07-24T01:43:53;25.60;46.30
11454;DHT22;5783;55.174;61.310;2023-07-24T01:46:22;25.60;46.40
11454;DHT22;5783;55.174;61.310;2023-07-24T01:48:51;25.60;46.40
11454;DHT22;5783;55.174;61.310;2023-07-24T01:51:21;25.60;46.40
11454;DHT22;5783;55.174;61.310;2023-07-24T01:53:50;25.60;46.40
11454;DHT22;5783;55.174;61.310;2023-07-24T01:56:19;25.60;46.40
11454;DHT22;5783;55.174;61.310;2023-07-24T01:58:48;25.60;46.40
11454;DHT22;5783;55.174;61.310;2023-07-24T02:01:17;25.60;46.50
11454;DHT22;5783;55.174;61.310;2023-07-24T02:03:46;25.60;46.50
11454;DHT22;5783;55.174;61.310;2023-07-24T02:06:15;25.60;46.50
11454;DHT22;5783;55.174;61.310;2023-07-24T02:08:44;25.60;46.60
11454;DHT22;5783;55.174;61.310;2023-07-24T02:11:16;25.60;46.60
11454;DHT22;5783;55.174;61.310;2023-07-24T02:13:46;25.60;46.70
11454;DHT22;5783;55.174;61.310;2023-07-24T02:16:15;25.60;46.60
11454;DHT22;5783;55.174;61.310;2023-07-24T02:18:45;25.60;46.70
11454;DHT22;5783;55.174;61.310;2023-07-24T02:21:15;25.60;46.70
11454;DHT22;5783;55.174;61.310;2023-07-24T02:23:44;25.60;46.70
11454;DHT22;5783;55.174;61.310;2023-07-24T02:26:13;25.60;46.70
11454;DHT22;5783;55.174;61.310;2023-07-24T02:28:42;25.60;46.80
11454;DHT22;5783;55.174;61.310;2023-07-24T02:31:11;25.60;46.80
11454;DHT22;5783;55.174;61.310;2023-07-24T02:33:41;25.60;46.80
11454;DHT22;5783;55.174;61.310;2023-07-24T02:36:10;25.60;46.90
11454;DHT22;5783;55.174;61.310;2023-07-24T02:38:39;25.60;46.80
11454;DHT22;5783;55.174;61.310;2023-07-24T02:41:08;25.60;46.80
11454;DHT22;5783;55.174;61.310;2023-07-24T02:43:37;25.60;46.80
11454;DHT22;5783;55.174;61.310;2023-07-24T02:46:06;25.60;46.80
11454;DHT22;5783;55.174;61.310;2023-07-24T02:48:36;25.70;46.90
11454;DHT22;5783;55.174;61.310;2023-07-24T02:51:05;25.60;46.80
11454;DHT22;5783;55.174;61.310;2023-07-24T02:53:34;25.70;46.90
11454;DHT22;5783;55.174;61.310;2023-07-24T02:56:03;25.70;46.90
11454;DHT22;5783;55.174;61.310;2023-07-24T02:58:32;25.70;46.90
11454;DHT22;5783;55.174;61.310;2023-07-24T03:01:21;25.70;46.90
11454;DHT22;5783;55.174;61.310;2023-07-24T03:03:50;25.70;46.90
11454;DHT22;5783;55.174;61.310;2023-07-24T03:06:19;25.70;47.00
11454;DHT22;5783;55.174;61.310;2023-07-24T03:08:49;25.70;47.00
11454;DHT22;5783;55.174;61.310;2023-07-24T03:11:18;25.70;47.10
11454;DHT22;5783;55.174;61.310;2023-07-24T03:13:47;25.70;47.10
11454;DHT22;5783;55.174;61.310;2023-07-24T03:16:16;25.70;47.10
11454;DHT22;5783;55.174;61.310;2023-07-24T03:18:47;25.70;47.10
11454;DHT22;5783;55.174;61.310;2023-07-24T03:21:16;25.70;47.00
11454;DHT22;5783;55.174;61.310;2023-07-24T03:23:46;25.70;47.00
11454;DHT22;5783;55.174;61.310;2023-07-24T03:26:15;25.70;47.00
11454;DHT22;5783;55.174;61.310;2023-07-24T03:28:44;25.70;47.00
11454;DHT22;5783;55.174;61.310;2023-07-24T03:31:13;25.70;47.10
11454;DHT22;5783;55.174;61.310;2023-07-24T03:33:42;25.70;47.10
11454;DHT22;5783;55.174;61.310;2023-07-24T03:36:11;25.70;47.00
11454;DHT22;5783;55.174;61.310;2023-07-24T03:38:40;25.70;47.10
11454;DHT22;5783;55.174;61.310;2023-07-24T03:41:10;25.70;47.10
11454;DHT22;5783;55.174;61.310;2023-07-24T03:43:41;25.70;47.10
11454;DHT22;5783;55.174;61.310;2023-07-24T03:46:10;25.70;47.10
11454;DHT22;5783;55.174;61.310;2023-07-24T03:48:39;25.70;47.10
11454;DHT22;5783;55.174;61.310;2023-07-24T03:51:08;25.70;47.20
11454;DHT22;5783;55.174;61.310;2023-07-24T03:53:38;25.70;47.30
11454;DHT22;5783;55.174;61.310;2023-07-24T03:56:07;25.70;47.40
11454;DHT22;5783;55.174;61.310;2023-07-24T03:58:37;25.70;47.40
11454;DHT22;5783;55.174;61.310;2023-07-24T04:01:07;25.70;47.40
11454;DHT22;5783;55.174;61.310;2023-07-24T04:03:36;25.70;47.40
11454;DHT22;5783;55.174;61.310;2023-07-24T04:06:05;25.70;47.40
11454;DHT22;5783;55.174;61.310;2023-07-24T04:08:35;25.60;47.60
11454;DHT22;5783;55.174;61.310;2023-07-24T04:11:04;25.50;47.80
11454;DHT22;5783;55.174;61.310;2023-07-24T04:13:33;25.50;47.90
11454;DHT22;5783;55.174;61.310;2023-07-24T04:16:02;25.40;47.90
11454;DHT22;5783;55.174;61.310;2023-07-24T04:18:31;25.40;48.00
11454;DHT22;5783;55.174;61.310;2023-07-24T04:21:00;25.40;48.00
11454;DHT22;5783;55.174;61.310;2023-07-24T04:23:30;25.40;48.00
11454;DHT22;5783;55.174;61.310;2023-07-24T04:25:59;25.40;48.00
11454;DHT22;5783;55.174;61.310;2023-07-24T04:28:28;25.40;48.00
11454;DHT22;5783;55.174;61.310;2023-07-24T04:33:47;25.40;47.90
11454;DHT22;5783;55.174;61.310;2023-07-24T04:36:16;25.40;48.00
11454;DHT22;5783;55.174;61.310;2023-07-24T04:38:45;25.40;47.80
11454;DHT22;5783;55.174;61.310;2023-07-24T04:41:15;25.40;47.80
11454;DHT22;5783;55.174;61.310;2023-07-24T04:43:44;25.40;47.70
11454;DHT22;5783;55.174;61.310;2023-07-24T04:46:13;25.40;47.60
11454;DHT22;5783;55.174;61.310;2023-07-24T04:48:42;25.40;47.60
11454;DHT22;5783;55.174;61.310;2023-07-24T04:51:11;25.40;47.50
11454;DHT22;5783;55.174;61.310;2023-07-24T04:53:40;25.50;47.60
11454;DHT22;5783;55.174;61.310;2023-07-24T04:56:09;25.50;47.50
11454;DHT22;5783;55.174;61.310;2023-07-24T04:58:39;25.50;47.30
11454;DHT22;5783;55.174;61.310;2023-07-24T05:01:08;25.50;47.20
11454;DHT22;5783;55.174;61.310;2023-07-24T05:03:37;25.50;47.30
11454;DHT22;5783;55.174;61.310;2023-07-24T05:06:06;25.60;47.50
11454;DHT22;5783;55.174;61.310;2023-07-24T05:08:35;25.60;47.30
11454;DHT22;5783;55.174;61.310;2023-07-24T05:11:04;25.70;47.30
11454;DHT22;5783;55.174;61.310;2023-07-24T05:13:34;25.70;46.40
11454;DHT22;5783;55.174;61.310;2023-07-24T05:16:03;25.70;45.80
11454;DHT22;5783;55.174;61.310;2023-07-24T05:18:32;25.70;45.50
11454;DHT22;5783;55.174;61.310;2023-07-24T05:21:01;25.80;44.70
11454;DHT22;5783;55.174;61.310;2023-07-24T05:23:30;25.80;44.60
11454;DHT22;5783;55.174;61.310;2023-07-24T05:26:01;25.80;44.40
11454;DHT22;5783;55.174;61.310;2023-07-24T05:28:32;25.80;44.00
11454;DHT22;5783;55.174;61.310;2023-07-24T05:31:02;25.80;43.80
11454;DHT22;5783;55.174;61.310;2023-07-24T05:33:32;25.80;44.40
11454;DHT22;5783;55.174;61.310;2023-07-24T05:36:03;25.80;44.80
11454;DHT22;5783;55.174;61.310;2023-07-24T05:38:32;25.80;44.10
11454;DHT22;5783;55.174;61.310;2023-07-24T05:41:03;25.80;43.80
11454;DHT22;5783;55.174;61.310;2023-07-24T05:43:32;25.80;43.10
11454;DHT22;5783;55.174;61.310;2023-07-24T05:46:01;25.80;42.80
11454;DHT22;5783;55.174;61.310;2023-07-24T05:48:31;25.80;42.50
11454;DHT22;5783;55.174;61.310;2023-07-24T05:51:00;25.80;43.10
11454;DHT22;5783;55.174;61.310;2023-07-24T05:53:29;25.70;43.00
11454;DHT22;5783;55.174;61.310;2023-07-24T05:56:18;25.80;43.00
11454;DHT22;5783;55.174;61.310;2023-07-24T05:58:47;25.80;42.30
11454;DHT22;5783;55.174;61.310;2023-07-24T06:01:16;25.80;42.60
11454;DHT22;5783;55.174;61.310;2023-07-24T06:03:45;25.80;42.20
11454;DHT22;5783;55.174;61.310;2023-07-24T06:06:14;25.80;42.00
11454;DHT22;5783;55.174;61.310;2023-07-24T06:08:43;25.80;41.70
11454;DHT22;5783;55.174;61.310;2023-07-24T06:11:14;25.70;42.50
11454;DHT22;5783;55.174;61.310;2023-07-24T06:13:43;25.70;42.60
11454;DHT22;5783;55.174;61.310;2023-07-24T06:16:12;25.80;42.20
11454;DHT22;5783;55.174;61.310;2023-07-24T06:18:41;25.80;41.80
11454;DHT22;5783;55.174;61.310;2023-07-24T06:21:10;25.80;42.30
11454;DHT22;5783;55.174;61.310;2023-07-24T06:23:40;25.80;42.20
11454;DHT22;5783;55.174;61.310;2023-07-24T06:26:09;25.80;42.80
11454;DHT22;5783;55.174;61.310;2023-07-24T06:28:38;25.80;42.60
11454;DHT22;5783;55.174;61.310;2023-07-24T06:31:08;25.80;43.30
11454;DHT22;5783;55.174;61.310;2023-07-24T06:33:37;25.80;43.10
11454;DHT22;5783;55.174;61.310;2023-07-24T06:38:56;25.80;43.50
11454;DHT22;5783;55.174;61.310;2023-07-24T06:41:25;25.70;43.60
11454;DHT22;5783;55.174;61.310;2023-07-24T06:43:54;25.70;43.20
11454;DHT22;5783;55.174;61.310;2023-07-24T06:46:23;25.70;43.40
11454;DHT22;5783;55.174;61.310;2023-07-24T06:48:53;25.70;43.70
11454;DHT22;5783;55.174;61.310;2023-07-24T06:51:22;25.70;43.30
11454;DHT22;5783;55.174;61.310;2023-07-24T06:53:51;25.80;43.40
11454;DHT22;5783;55.174;61.310;2023-07-24T06:56:20;25.70;43.10
11454;DHT22;5783;55.174;61.310;2023-07-24T06:58:49;25.80;43.20
11454;DHT22;5783;55.174;61.310;2023-07-24T07:01:18;25.80;43.30
11454;DHT22;5783;55.174;61.310;2023-07-24T07:03:48;25.80;42.70
11454;DHT22;5783;55.174;61.310;2023-07-24T07:06:17;25.80;42.70
11454;DHT22;5783;55.174;61.310;2023-07-24T07:08:47;25.80;42.70
11454;DHT22;5783;55.174;61.310;2023-07-24T07:11:16;25.80;43.10
11454;DHT22;5783;55.174;61.310;2023-07-24T07:13:45;25.80;42.80
11454;DHT22;5783;55.174;61.310;2023-07-24T07:16:14;25.90;42.90
11454;DHT22;5783;55.174;61.310;2023-07-24T07:18:45;25.90;43.20
11454;DHT22;5783;55.174;61.310;2023-07-24T07:21:14;25.90;43.40
11454;DHT22;5783;55.174;61.310;2023-07-24T07:23:43;25.90;43.50
11454;DHT22;5783;55.174;61.310;2023-07-24T07:26:12;25.90;43.60
11454;DHT22;5783;55.174;61.310;2023-07-24T07:28:42;25.90;43.60
11454;DHT22;5783;55.174;61.310;2023-07-24T07:31:13;26.00;43.80
11454;DHT22;5783;55.174;61.310;2023-07-24T07:33:42;26.00;43.80
11454;DHT22;5783;55.174;61.310;2023-07-24T07:36:11;26.00;43.90
11454;DHT22;5783;55.174;61.310;2023-07-24T07:38:40;26.00;43.90
11454;DHT22;5783;55.174;61.310;2023-07-24T07:41:09;26.00;43.90
11454;DHT22;5783;55.174;61.310;2023-07-24T07:43:39;26.10;44.10
11454;DHT22;5783;55.174;61.310;2023-07-24T07:46:08;26.10;44.10
11454;DHT22;5783;55.174;61.310;2023-07-24T07:48:38;26.10;44.10
11454;DHT22;5783;55.174;61.310;2023-07-24T07:51:07;26.10;44.10
11454;DHT22;5783;55.174;61.310;2023-07-24T07:53:36;26.10;44.30
11454;DHT22;5783;55.174;61.310;2023-07-24T07:56:05;26.10;44.10
11454;DHT22;5783;55.174;61.310;2023-07-24T07:58:35;26.10;44.20
11454;DHT22;5783;55.174;61.310;2023-07-24T08:01:23;26.10;44.30
11454;DHT22;5783;55.174;61.310;2023-07-24T08:03:53;26.10;44.30
11454;DHT22;5783;55.174;61.310;2023-07-24T08:06:22;26.10;44.30
11454;DHT22;5783;55.174;61.310;2023-07-24T08:08:51;26.20;44.30
11454;DHT22;5783;55.174;61.310;2023-07-24T08:11:20;26.20;44.40
11454;DHT22;5783;55.174;61.310;2023-07-24T08:13:49;26.20;44.40
11454;DHT22;5783;55.174;61.310;2023-07-24T08:16:18;26.20;44.40
11454;DHT22;5783;55.174;61.310;2023-07-24T08:18:48;26.20;44.40
11454;DHT22;5783;55.174;61.310;2023-07-24T08:21:19;26.20;44.40
11454;DHT22;5783;55.174;61.310;2023-07-24T08:23:48;26.30;44.40
11454;DHT22;5783;55.174;61.310;2023-07-24T08:26:17;26.30;44.30
11454;DHT22;5783;55.174;61.310;2023-07-24T08:28:46;26.30;44.40
11454;DHT22;5783;55.174;61.310;2023-07-24T08:31:15;26.30;44.40
11454;DHT22;5783;55.174;61.310;2023-07-24T08:33:44;26.30;44.40
11454;DHT22;5783;55.174;61.310;2023-07-24T08:36:13;26.40;44.40
11454;DHT22;5783;55.174;61.310;2023-07-24T08:38:42;26.40;44.60
11454;DHT22;5783;55.174;61.310;2023-07-24T08:41:13;26.40;44.40
11454;DHT22;5783;55.174;61.310;2023-07-24T08:43:43;26.40;44.40
11454;DHT22;5783;55.174;61.310;2023-07-24T08:46:12;26.40;44.40
11454;DHT22;5783;55.174;61.310;2023-07-24T08:48:42;26.40;44.40
11454;DHT22;5783;55.174;61.310;2023-07-24T08:51:13;26.40;44.40
11454;DHT22;5783;55.174;61.310;2023-07-24T08:53:45;26.40;44.00
11454;DHT22;5783;55.174;61.310;2023-07-24T08:56:14;26.40;42.90
11454;DHT22;5783;55.174;61.310;2023-07-24T08:58:43;26.40;41.80
11454;DHT22;5783;55.174;61.310;2023-07-24T09:01:12;26.40;41.90
11454;DHT22;5783;55.174;61.310;2023-07-24T09:03:41;26.40;41.60
11454;DHT22;5783;55.174;61.310;2023-07-24T09:06:11;26.40;42.00
11454;DHT22;5783;55.174;61.310;2023-07-24T09:08:42;26.40;42.10
11454;DHT22;5783;55.174;61.310;2023-07-24T09:11:13;26.40;42.00
11454;DHT22;5783;55.174;61.310;2023-07-24T09:13:43;26.40;42.40
11454;DHT22;5783;55.174;61.310;2023-07-24T09:16:32;26.40;42.40
11454;DHT22;5783;55.174;61.310;2023-07-24T09:19:00;26.40;42.70
11454;DHT22;5783;55.174;61.310;2023-07-24T09:21:30;26.40;42.40
11454;DHT22;5783;55.174;61.310;2023-07-24T09:26:48;26.40;42.30
11454;DHT22;5783;55.174;61.310;2023-07-24T09:29:18;26.40;42.00
11454;DHT22;5783;55.174;61.310;2023-07-24T09:31:48;26.40;41.60
11454;DHT22;5783;55.174;61.310;2023-07-24T09:34:17;26.40;41.30
11454;DHT22;5783;55.174;61.310;2023-07-24T09:36:46;26.40;40.60
11454;DHT22;5783;55.174;61.310;2023-07-24T09:42:06;26.40;40.80
11454;DHT22;5783;55.174;61.310;2023-07-24T09:44:35;26.40;40.60
11454;DHT22;5783;55.174;61.310;2023-07-24T09:47:03;26.40;40.60
11454;DHT22;5783;55.174;61.310;2023-07-24T09:49:32;26.40;40.40
11454;DHT22;5783;55.174;61.310;2023-07-24T09:52:04;26.40;40.10
11454;DHT22;5783;55.174;61.310;2023-07-24T09:54:38;26.40;40.60
11454;DHT22;5783;55.174;61.310;2023-07-24T09:57:08;26.40;40.60
11454;DHT22;5783;55.174;61.310;2023-07-24T09:59:38;26.40;40.20
11454;DHT22;5783;55.174;61.310;2023-07-24T10:02:10;26.40;40.40
11454;DHT22;5783;55.174;61.310;2023-07-24T10:04:39;26.40;40.80
11454;DHT22;5783;55.174;61.310;2023-07-24T10:07:09;26.40;41.00
11454;DHT22;5783;55.174;61.310;2023-07-24T10:09:38;26.40;40.90
11454;DHT22;5783;55.174;61.310;2023-07-24T10:12:07;26.40;40.50
11454;DHT22;5783;55.174;61.310;2023-07-24T10:14:36;26.40;40.10
11454;DHT22;5783;55.174;61.310;2023-07-24T10:17:06;26.40;40.10
11454;DHT22;5783;55.174;61.310;2023-07-24T10:20:01;26.40;40.50
11454;DHT22;5783;55.174;61.310;2023-07-24T10:22:27;26.40;40.30
11454;DHT22;5783;55.174;61.310;2023-07-24T10:24:57;26.40;40.20
11454;DHT22;5783;55.174;61.310;2023-07-24T10:27:26;26.40;40.40
11454;DHT22;5783;55.174;61.310;2023-07-24T10:30:15;26.40;40.30
11454;DHT22;5783;55.174;61.310;2023-07-24T10:33:35;26.40;40.40
11454;DHT22;5783;55.174;61.310;2023-07-24T10:35:54;26.40;40.10
11454;DHT22;5783;55.174;61.310;2023-07-24T10:41:15;26.50;41.00
11454;DHT22;5783;55.174;61.310;2023-07-24T10:43:44;26.50;40.90
11454;DHT22;5783;55.174;61.310;2023-07-24T10:46:13;26.50;41.10
11454;DHT22;5783;55.174;61.310;2023-07-24T10:48:42;26.50;41.30
11454;DHT22;5783;55.174;61.310;2023-07-24T10:51:10;26.60;40.90
11454;DHT22;5783;55.174;61.310;2023-07-24T10:54:01;26.60;40.00
11454;DHT22;5783;55.174;61.310;2023-07-24T10:56:30;26.60;40.70
11454;DHT22;5783;55.174;61.310;2023-07-24T11:01:47;26.70;40.40
11454;DHT22;5783;55.174;61.310;2023-07-24T11:04:17;26.70;40.10
11454;DHT22;5783;55.174;61.310;2023-07-24T11:06:45;26.70;40.90
11454;DHT22;5783;55.174;61.310;2023-07-24T11:09:13;26.70;40.00
11454;DHT22;5783;55.174;61.310;2023-07-24T11:11:43;26.70;40.10
11454;DHT22;5783;55.174;61.310;2023-07-24T11:14:13;26.70;39.90
11454;DHT22;5783;55.174;61.310;2023-07-24T11:19:29;26.70;39.40
11454;DHT22;5783;55.174;61.310;2023-07-24T11:21:58;26.70;39.00
11454;DHT22;5783;55.174;61.310;2023-07-24T11:24:29;26.70;39.40
11454;DHT22;5783;55.174;61.310;2023-07-24T11:26:57;26.80;38.40
11454;DHT22;5783;55.174;61.310;2023-07-24T11:29:25;26.80;39.10
11454;DHT22;5783;55.174;61.310;2023-07-24T11:31:55;26.80;39.70
11454;DHT22;5783;55.174;61.310;2023-07-24T11:34:23;26.80;40.00
11454;DHT22;5783;55.174;61.310;2023-07-24T11:36:53;26.80;39.70
11454;DHT22;5783;55.174;61.310;2023-07-24T11:39:23;26.80;39.50
11454;DHT22;5783;55.174;61.310;2023-07-24T11:41:51;26.80;39.00
11454;DHT22;5783;55.174;61.310;2023-07-24T11:47:08;26.80;38.50
11454;DHT22;5783;55.174;61.310;2023-07-24T11:49:37;26.80;38.80
11454;DHT22;5783;55.174;61.310;2023-07-24T11:52:07;26.80;38.50
11454;DHT22;5783;55.174;61.310;2023-07-24T11:54:36;26.80;39.00
11454;DHT22;5783;55.174;61.310;2023-07-24T11:57:40;26.80;39.20
11454;DHT22;5783;55.174;61.310;2023-07-24T12:02:44;26.80;39.30
11454;DHT22;5783;55.174;61.310;2023-07-24T12:05:13;26.80;39.10
11454;DHT22;5783;55.174;61.310;2023-07-24T12:07:43;26.80;38.90
11454;DHT22;5783;55.174;61.310;2023-07-24T12:10:24;26.80;38.50
11454;DHT22;5783;55.174;61.310;2023-07-24T12:12:47;26.80;38.40
11454;DHT22;5783;55.174;61.310;2023-07-24T12:15:16;26.80;38.30
11454;DHT22;5783;55.174;61.310;2023-07-24T12:17:45;26.80;38.50
11454;DHT22;5783;55.174;61.310;2023-07-24T12:20:14;26.80;38.80
11454;DHT22;5783;55.174;61.310;2023-07-24T12:22:43;26.80;39.00
11454;DHT22;5783;55.174;61.310;2023-07-24T12:25:12;26.80;38.60
11454;DHT22;5783;55.174;61.310;2023-07-24T12:27:41;26.80;38.70
11454;DHT22;5783;55.174;61.310;2023-07-24T12:30:09;26.80;38.50
11454;DHT22;5783;55.174;61.310;2023-07-24T12:32:38;26.80;38.10
11454;DHT22;5783;55.174;61.310;2023-07-24T12:35:07;26.80;38.80
11454;DHT22;5783;55.174;61.310;2023-07-24T12:37:36;26.80;38.10
11454;DHT22;5783;55.174;61.310;2023-07-24T12:40:05;26.80;38.30
11454;DHT22;5783;55.174;61.310;2023-07-24T12:42:35;26.80;37.90
11454;DHT22;5783;55.174;61.310;2023-07-24T12:45:05;26.80;37.50
11454;DHT22;5783;55.174;61.310;2023-07-24T12:47:35;26.80;37.90
11454;DHT22;5783;55.174;61.310;2023-07-24T12:50:03;26.80;38.30
11454;DHT22;5783;55.174;61.310;2023-07-24T12:52:31;26.80;37.50
11454;DHT22;5783;55.174;61.310;2023-07-24T12:55:00;26.80;37.10
11454;DHT22;5783;55.174;61.310;2023-07-24T12:57:31;26.80;37.50
11454;DHT22;5783;55.174;61.310;2023-07-24T13:00:00;26.80;37.20
11454;DHT22;5783;55.174;61.310;2023-07-24T13:02:31;26.80;36.90
11454;DHT22;5783;55.174;61.310;2023-07-24T13:05:00;26.80;37.90
11454;DHT22;5783;55.174;61.310;2023-07-24T13:07:30;26.90;37.60
11454;DHT22;5783;55.174;61.310;2023-07-24T13:09:58;26.80;37.80
11454;DHT22;5783;55.174;61.310;2023-07-24T13:12:27;26.90;37.80
11454;DHT22;5783;55.174;61.310;2023-07-24T13:14:55;26.80;37.90
11454;DHT22;5783;55.174;61.310;2023-07-24T13:17:23;26.90;38.00
11454;DHT22;5783;55.174;61.310;2023-07-24T13:19:52;26.80;37.90
11454;DHT22;5783;55.174;61.310;2023-07-24T13:22:20;26.80;37.90
11454;DHT22;5783;55.174;61.310;2023-07-24T13:24:48;26.90;38.10
11454;DHT22;5783;55.174;61.310;2023-07-24T13:27:16;26.90;38.30
11454;DHT22;5783;55.174;61.310;2023-07-24T13:29:44;26.90;37.80
11454;DHT22;5783;55.174;61.310;2023-07-24T13:32:13;26.90;37.80
11454;DHT22;5783;55.174;61.310;2023-07-24T13:34:42;26.90;37.80
11454;DHT22;5783;55.174;61.310;2023-07-24T13:37:10;26.90;38.00
11454;DHT22;5783;55.174;61.310;2023-07-24T13:39:39;26.90;37.90
11454;DHT22;5783;55.174;61.310;2023-07-24T13:42:08;26.90;38.10
11454;DHT22;5783;55.174;61.310;2023-07-24T13:44:37;26.90;37.80
11454;DHT22;5783;55.174;61.310;2023-07-24T13:47:05;26.90;38.30
11454;DHT22;5783;55.174;61.310;2023-07-24T13:49:33;26.90;38.40
11454;DHT22;5783;55.174;61.310;2023-07-24T13:52:01;26.90;38.60
11454;DHT22;5783;55.174;61.310;2023-07-24T13:54:30;26.90;38.60
11454;DHT22;5783;55.174;61.310;2023-07-24T13:56:58;26.90;38.60
11454;DHT22;5783;55.174;61.310;2023-07-24T13:59:27;26.90;38.60
11454;DHT22;5783;55.174;61.310;2023-07-24T14:01:55;26.90;38.40
11454;DHT22;5783;55.174;61.310;2023-07-24T14:04:24;26.90;38.40
11454;DHT22;5783;55.174;61.310;2023-07-24T14:06:52;26.90;38.40
11454;DHT22;5783;55.174;61.310;2023-07-24T14:09:21;26.90;38.30
11454;DHT22;5783;55.174;61.310;2023-07-24T14:11:50;26.90;38.50
11454;DHT22;5783;55.174;61.310;2023-07-24T14:14:18;26.90;38.20
11454;DHT22;5783;55.174;61.310;2023-07-24T14:16:47;26.90;38.40
11454;DHT22;5783;55.174;61.310;2023-07-24T14:19:15;26.90;38.60
11454;DHT22;5783;55.174;61.310;2023-07-24T14:21:44;26.90;38.40
11454;DHT22;5783;55.174;61.310;2023-07-24T14:24:12;26.90;37.90
11454;DHT22;5783;55.174;61.310;2023-07-24T14:26:40;26.90;38.10
11454;DHT22;5783;55.174;61.310;2023-07-24T14:29:10;26.90;37.90
11454;DHT22;5783;55.174;61.310;2023-07-24T14:31:38;26.90;37.90
11454;DHT22;5783;55.174;61.310;2023-07-24T14:34:06;26.90;38.10
11454;DHT22;5783;55.174;61.310;2023-07-24T14:36:36;26.90;38.40
11454;DHT22;5783;55.174;61.310;2023-07-24T14:39:04;26.90;38.30
11454;DHT22;5783;55.174;61.310;2023-07-24T14:41:34;26.90;38.00
11454;DHT22;5783;55.174;61.310;2023-07-24T14:44:02;26.90;37.70
11454;DHT22;5783;55.174;61.310;2023-07-24T14:46:31;26.90;38.00
11454;DHT22;5783;55.174;61.310;2023-07-24T14:48:59;26.90;37.90
11454;DHT22;5783;55.174;61.310;2023-07-24T14:51:27;26.90;37.80
11454;DHT22;5783;55.174;61.310;2023-07-24T14:53:55;26.90;37.60
11454;DHT22;5783;55.174;61.310;2023-07-24T14:56:23;26.90;37.80
11454;DHT22;5783;55.174;61.310;2023-07-24T14:58:51;26.90;38.00
11454;DHT22;5783;55.174;61.310;2023-07-24T15:01:19;26.90;38.00
11454;DHT22;5783;55.174;61.310;2023-07-24T15:03:48;26.90;37.90
11454;DHT22;5783;55.174;61.310;2023-07-24T15:06:16;26.90;38.40
11454;DHT22;5783;55.174;61.310;2023-07-24T15:08:45;26.90;38.40
11454;DHT22;5783;55.174;61.310;2023-07-24T15:11:13;26.90;38.50
11454;DHT22;5783;55.174;61.310;2023-07-24T15:13:41;26.90;38.90
11454;DHT22;5783;55.174;61.310;2023-07-24T15:16:09;26.90;38.80
11454;DHT22;5783;55.174;61.310;2023-07-24T15:18:37;26.90;39.30
11454;DHT22;5783;55.174;61.310;2023-07-24T15:21:05;26.90;38.90
11454;DHT22;5783;55.174;61.310;2023-07-24T15:23:34;26.90;38.90
11454;DHT22;5783;55.174;61.310;2023-07-24T15:26:04;26.90;38.90
11454;DHT22;5783;55.174;61.310;2023-07-24T15:28:33;26.90;39.00
11454;DHT22;5783;55.174;61.310;2023-07-24T15:31:02;26.90;39.10
11454;DHT22;5783;55.174;61.310;2023-07-24T15:33:30;26.90;39.20
11454;DHT22;5783;55.174;61.310;2023-07-24T15:35:58;26.90;39.30
11454;DHT22;5783;55.174;61.310;2023-07-24T15:38:26;26.80;39.30
11454;DHT22;5783;55.174;61.310;2023-07-24T15:43:24;26.80;39.70
11454;DHT22;5783;55.174;61.310;2023-07-24T15:45:52;26.80;39.70
11454;DHT22;5783;55.174;61.310;2023-07-24T15:48:21;26.80;40.20
11454;DHT22;5783;55.174;61.310;2023-07-24T15:50:49;26.80;40.30
11454;DHT22;5783;55.174;61.310;2023-07-24T15:53:17;26.80;40.40
11454;DHT22;5783;55.174;61.310;2023-07-24T15:55:45;26.80;40.40
11454;DHT22;5783;55.174;61.310;2023-07-24T15:58:13;26.80;40.40
11454;DHT22;5783;55.174;61.310;2023-07-24T16:00:41;26.80;40.50
11454;DHT22;5783;55.174;61.310;2023-07-24T16:03:09;26.80;40.20
11454;DHT22;5783;55.174;61.310;2023-07-24T16:05:38;26.80;40.40
11454;DHT22;5783;55.174;61.310;2023-07-24T16:08:06;26.80;40.40
11454;DHT22;5783;55.174;61.310;2023-07-24T16:10:34;26.80;40.40
11454;DHT22;5783;55.174;61.310;2023-07-24T16:13:02;26.70;40.50
11454;DHT22;5783;55.174;61.310;2023-07-24T16:15:30;26.80;40.60